Time;durP1;ratioP1;P1;durP2;ratioP2;P2;SDS_P1;SDS_P2;PMS_P1;PMS_P2;Temp;Humidity;BMP_temperature;BMP_pressure;BME280_temperature;BME280_humidity;BME280_pressure;Samples;Min_cycle;Max_cycle;Signal;HPM_P1;HPM_P2
2021/03/04 00:00:11;;;;;;;76.38;53.05;;;7.10;99.90;;;;;;4989901;28;20571;-40
2021/03/04 00:02:39;;;;;;;67.57;50.28;;;7.00;99.90;;;;;;4991431;28;20197;-41
2021/03/04 00:05:07;;;;;;;67.75;51.20;;;6.80;99.90;;;;;;4991173;28;20558;-40
2021/03/04 00:07:36;;;;;;;74.30;54.03;;;6.70;99.90;;;;;;4990491;28;20470;-40
2021/03/04 00:10:06;;;;;;;79.30;57.47;;;6.70;99.90;;;;;;4991100;28;20267;-40
2021/03/04 00:12:33;;;;;;;81.90;57.63;;;6.70;99.90;;;;;;4990898;28;20221;-40
2021/03/04 00:15:01;;;;;;;83.47;61.75;;;6.50;99.90;;;;;;4991277;28;20641;-41
2021/03/04 00:17:28;;;;;;;93.50;68.13;;;6.40;99.90;;;;;;4991578;28;20271;-40
2021/03/04 00:19:55;;;;;;;95.85;66.93;;;6.30;99.90;;;;;;4990547;28;20204;-43
2021/03/04 00:22:22;;;;;;;95.70;66.45;;;6.20;99.90;;;;;;4987722;28;20780;-40
2021/03/04 00:24:48;;;;;;;97.38;64.95;;;6.20;99.90;;;;;;4989667;28;20292;-41
2021/03/04 00:27:16;;;;;;;100.10;69.25;;;6.10;99.90;;;;;;4990506;28;20224;-40
2021/03/04 00:29:50;;;;;;;107.85;69.95;;;6.10;99.90;;;;;;4983567;28;20277;-40
2021/03/04 00:32:17;;;;;;;95.75;67.65;;;6.10;99.90;;;;;;4990172;28;20213;-40
2021/03/04 00:34:44;;;;;;;95.18;67.10;;;6.10;99.90;;;;;;4990788;28;20252;-40
2021/03/04 00:37:11;;;;;;;97.20;68.63;;;6.10;99.90;;;;;;4990711;28;20206;-40
2021/03/04 00:39:38;;;;;;;95.65;66.15;;;6.20;99.90;;;;;;4976172;28;20193;-40
2021/03/04 00:42:06;;;;;;;88.38;62.03;;;6.20;99.90;;;;;;4987249;28;20217;-40
2021/03/04 00:44:33;;;;;;;87.30;58.58;;;6.20;99.90;;;;;;4972460;28;20776;-40
2021/03/04 00:46:59;;;;;;;87.75;62.20;;;6.30;99.90;;;;;;4976156;28;20228;-40
2021/03/04 00:49:27;;;;;;;93.05;63.30;;;6.20;99.90;;;;;;4972734;28;20677;-41
2021/03/04 00:51:54;;;;;;;92.45;61.72;;;6.10;99.90;;;;;;4975200;28;20209;-40
2021/03/04 00:54:21;;;;;;;86.47;58.67;;;6.00;99.90;;;;;;4975568;28;20333;-42
2021/03/04 00:56:48;;;;;;;84.03;58.47;;;6.00;99.90;;;;;;4979052;28;20241;-40
2021/03/04 00:59:15;;;;;;;90.10;59.88;;;6.10;99.90;;;;;;4981401;28;20203;-39
2021/03/04 01:01:42;;;;;;;89.25;59.92;;;6.10;99.90;;;;;;4979892;28;20214;-41
2021/03/04 01:04:09;;;;;;;91.07;62.83;;;6.10;99.90;;;;;;4987058;28;20197;-40
2021/03/04 01:06:36;;;;;;;87.38;57.15;;;6.20;99.90;;;;;;4985352;28;20186;-42
2021/03/04 01:09:06;;;;;;;79.13;55.13;;;6.10;99.90;;;;;;4979899;28;20197;-40
2021/03/04 01:11:33;;;;;;;83.93;58.63;;;6.10;99.90;;;;;;4982548;28;20228;-39
2021/03/04 01:14:00;;;;;;;83.00;55.38;;;6.10;99.90;;;;;;4990547;28;20228;-40
2021/03/04 01:16:27;;;;;;;84.38;56.20;;;6.10;99.90;;;;;;4989445;28;20713;-42
2021/03/04 01:18:54;;;;;;;81.30;58.08;;;6.00;99.90;;;;;;4990580;28;20193;-40
2021/03/04 01:21:21;;;;;;;87.32;58.63;;;6.00;99.90;;;;;;4989880;28;20236;-41
2021/03/04 01:23:47;;;;;;;87.13;59.60;;;6.00;99.90;;;;;;4990185;28;20186;-40
2021/03/04 01:26:15;;;;;;;94.28;60.65;;;6.00;99.90;;;;;;4990081;28;20209;-42
2021/03/04 01:28:42;;;;;;;84.63;55.88;;;6.00;99.90;;;;;;4990169;28;20189;-40
2021/03/04 01:31:09;;;;;;;85.07;55.58;;;6.10;99.90;;;;;;4985214;28;20221;-40
2021/03/04 01:33:36;;;;;;;80.60;57.78;;;6.00;99.90;;;;;;4985903;28;20296;-40
2021/03/04 01:36:03;;;;;;;86.88;58.72;;;6.00;99.90;;;;;;4985239;28;20260;-40
2021/03/04 01:38:30;;;;;;;78.20;54.60;;;6.10;99.90;;;;;;4989038;28;20280;-40
2021/03/04 01:40:57;;;;;;;86.72;57.22;;;6.00;99.90;;;;;;4984586;28;20228;-39
2021/03/04 01:43:24;;;;;;;83.93;58.67;;;5.90;99.90;;;;;;4987165;28;20257;-40
2021/03/04 01:45:51;;;;;;;87.15;57.75;;;5.80;99.90;;;;;;4988998;28;20228;-40
2021/03/04 01:48:18;;;;;;;79.83;55.53;;;5.80;99.90;;;;;;4979564;28;20217;-39
2021/03/04 01:50:45;;;;;;;83.18;52.90;;;5.70;99.90;;;;;;4985708;28;20752;-42
2021/03/04 01:53:11;;;;;;;79.53;54.97;;;5.60;99.90;;;;;;4987488;28;20298;-40
2021/03/04 01:55:38;;;;;;;86.53;57.17;;;5.60;99.90;;;;;;4988656;28;20253;-40
2021/03/04 01:58:05;;;;;;;88.20;58.17;;;5.50;99.90;;;;;;4989701;28;20228;-40
2021/03/04 02:00:33;;;;;;;89.95;58.78;;;5.50;99.90;;;;;;4996699;28;20228;-37
2021/03/04 02:02:59;;;;;;;91.13;57.60;;;5.50;99.90;;;;;;4989660;28;20286;-37
2021/03/04 02:05:26;;;;;;;90.28;59.33;;;5.50;99.90;;;;;;4990828;28;20201;-37
2021/03/04 02:08:02;;;;;;;90.00;59.75;;;5.60;99.90;;;;;;4993464;28;20220;-37
2021/03/04 02:10:38;;;;;;;86.47;55.67;;;5.60;99.90;;;;;;4993879;28;20733;-38
2021/03/04 02:13:14;;;;;;;94.00;57.33;;;5.60;99.90;;;;;;4993744;28;20227;-41
2021/03/04 02:15:47;;;;;;;83.60;54.60;;;5.50;99.90;;;;;;4993968;28;20208;-40
2021/03/04 02:18:17;;;;;;;84.78;54.40;;;5.50;99.90;;;;;;4985388;28;20210;-40
2021/03/04 02:21:04;;;;;;;91.70;59.45;;;5.40;99.90;;;;;;4993248;28;20233;-42
2021/03/04 02:23:46;;;;;;;95.18;62.55;;;5.40;99.90;;;;;;4989023;28;20668;-40
2021/03/04 02:26:26;;;;;;;93.53;57.55;;;5.40;99.90;;;;;;4993091;28;20182;-41
2021/03/04 02:28:57;;;;;;;96.32;59.08;;;5.30;99.90;;;;;;4993223;28;20707;-40
2021/03/04 02:31:25;;;;;;;96.55;60.17;;;5.30;99.90;;;;;;4987272;28;20604;-40
2021/03/04 02:33:53;;;;;;;94.47;58.60;;;5.30;99.90;;;;;;4992609;28;20193;-39
2021/03/04 02:36:21;;;;;;;88.53;55.40;;;5.30;99.90;;;;;;4991681;28;20476;-40
2021/03/04 02:38:48;;;;;;;94.03;56.92;;;5.30;99.90;;;;;;4993203;28;20201;-41
2021/03/04 02:41:16;;;;;;;95.25;58.72;;;5.20;99.90;;;;;;4993253;28;20217;-40
2021/03/04 02:43:43;;;;;;;92.60;57.92;;;5.30;99.90;;;;;;4992865;28;20244;-40
2021/03/04 02:46:11;;;;;;;93.80;59.38;;;5.30;99.90;;;;;;4992784;28;20276;-40
2021/03/04 02:48:40;;;;;;;101.07;60.58;;;5.20;99.90;;;;;;4991728;28;20276;-41
2021/03/04 02:51:08;;;;;;;89.43;56.80;;;5.30;99.90;;;;;;4993087;28;20217;-39
2021/03/04 02:53:36;;;;;;;99.90;60.30;;;5.20;99.90;;;;;;4991937;28;20204;-40
2021/03/04 02:56:04;;;;;;;87.78;54.00;;;5.20;99.90;;;;;;4977582;28;20210;-40
2021/03/04 02:58:31;;;;;;;93.10;59.08;;;5.20;99.90;;;;;;4984905;28;20692;-42
2021/03/04 03:00:59;;;;;;;97.03;57.45;;;5.20;99.90;;;;;;4991473;28;20728;-40
2021/03/04 03:03:28;;;;;;;98.60;60.13;;;5.40;99.90;;;;;;4989167;28;20557;-40
2021/03/04 03:05:56;;;;;;;100.78;60.95;;;5.30;99.90;;;;;;4988693;28;20692;-41
2021/03/04 03:08:22;;;;;;;107.90;62.97;;;5.40;99.90;;;;;;4987877;28;20244;-40
2021/03/04 03:10:52;;;;;;;104.10;62.65;;;5.30;99.90;;;;;;4992231;28;20225;-40
2021/03/04 03:13:20;;;;;;;103.55;62.83;;;5.30;99.90;;;;;;4992372;28;20186;-39
2021/03/04 03:15:47;;;;;;;118.57;68.53;;;5.30;99.90;;;;;;4992392;28;20202;-42
2021/03/04 03:18:13;;;;;;;103.83;63.67;;;5.20;99.90;;;;;;4992458;28;20220;-40
2021/03/04 03:20:41;;;;;;;90.47;59.90;;;5.20;99.90;;;;;;4992009;28;20738;-40
2021/03/04 03:23:08;;;;;;;105.65;62.83;;;5.20;99.90;;;;;;4992238;28;20244;-40
2021/03/04 03:25:35;;;;;;;100.55;61.40;;;5.20;99.90;;;;;;4992124;28;20201;-40
2021/03/04 03:28:02;;;;;;;107.78;64.18;;;5.10;99.90;;;;;;4992620;28;20201;-39
2021/03/04 03:30:30;;;;;;;111.57;67.75;;;5.20;99.90;;;;;;4992206;28;20275;-40
2021/03/04 03:33:01;;;;;;;104.63;63.95;;;5.20;99.90;;;;;;4992000;28;20240;-42
2021/03/04 03:35:29;;;;;;;103.78;65.55;;;5.10;99.90;;;;;;4983632;28;20695;-40
2021/03/04 03:37:58;;;;;;;106.43;62.63;;;5.10;99.90;;;;;;4992377;28;20299;-40
2021/03/04 03:40:27;;;;;;;101.27;58.67;;;5.10;99.90;;;;;;4991883;28;20200;-39
2021/03/04 03:42:57;;;;;;;99.63;61.58;;;5.10;99.90;;;;;;4991697;28;20197;-40
2021/03/04 03:45:28;;;;;;;109.05;64.03;;;5.10;99.90;;;;;;4992050;28;20569;-39
2021/03/04 03:47:57;;;;;;;102.10;60.67;;;5.10;99.90;;;;;;4992368;28;20194;-39
2021/03/04 03:50:25;;;;;;;97.97;61.92;;;4.90;99.90;;;;;;4991560;28;20233;-41
2021/03/04 03:52:52;;;;;;;98.45;59.58;;;4.90;99.90;;;;;;4991667;28;20587;-39
2021/03/04 03:55:21;;;;;;;96.95;57.53;;;4.80;99.90;;;;;;4991651;28;20670;-40
2021/03/04 03:57:49;;;;;;;106.88;60.55;;;4.80;99.90;;;;;;4991423;28;20647;-40
2021/03/04 04:00:24;;;;;;;108.22;61.53;;;4.80;99.90;;;;;;4991568;28;20629;-40
2021/03/04 04:02:54;;;;;;;102.95;62.15;;;4.80;99.90;;;;;;4991502;28;20215;-40
2021/03/04 04:05:21;;;;;;;105.10;62.08;;;4.70;99.90;;;;;;4989899;28;20239;-40
2021/03/04 04:07:50;;;;;;;97.97;59.47;;;4.70;99.90;;;;;;4992205;28;20193;-41
2021/03/04 04:10:16;;;;;;;111.97;62.55;;;4.70;99.90;;;;;;4992172;28;20680;-40
2021/03/04 04:12:44;;;;;;;109.97;61.47;;;4.70;99.90;;;;;;4992579;28;20268;-41
2021/03/04 04:15:12;;;;;;;101.18;59.13;;;4.70;99.90;;;;;;4991330;28;20702;-40
2021/03/04 04:17:39;;;;;;;109.28;61.03;;;4.60;99.90;;;;;;4991137;28;20264;-39
2021/03/04 04:20:08;;;;;;;113.13;62.70;;;4.70;99.90;;;;;;4991022;28;20623;-41
2021/03/04 04:22:35;;;;;;;107.82;62.70;;;4.60;99.90;;;;;;4990044;28;20197;-40
2021/03/04 04:25:03;;;;;;;108.38;61.50;;;4.50;99.90;;;;;;4990973;28;20285;-40
2021/03/04 04:27:30;;;;;;;109.88;62.53;;;4.60;99.90;;;;;;4989931;28;20221;-40
2021/03/04 04:29:58;;;;;;;103.70;58.72;;;4.70;99.90;;;;;;4990810;28;20695;-39
2021/03/04 04:32:24;;;;;;;98.45;61.70;;;4.80;99.90;;;;;;4990839;28;20217;-42
2021/03/04 04:34:51;;;;;;;106.68;60.85;;;4.90;99.90;;;;;;4990460;28;20205;-40
2021/03/04 04:37:18;;;;;;;106.90;62.88;;;4.90;99.90;;;;;;4991079;28;20589;-38
2021/03/04 04:39:45;;;;;;;101.15;60.25;;;4.80;99.90;;;;;;4991231;28;20248;-40
2021/03/04 04:42:12;;;;;;;107.75;64.60;;;4.70;99.90;;;;;;4984637;28;20213;-38
2021/03/04 04:44:39;;;;;;;105.95;59.17;;;4.70;99.90;;;;;;4983184;28;20201;-40
2021/03/04 04:47:07;;;;;;;111.25;59.83;;;4.70;99.90;;;;;;4975180;28;20185;-37
2021/03/04 04:49:33;;;;;;;107.63;60.83;;;4.60;99.90;;;;;;4983720;28;20198;-39
2021/03/04 04:52:01;;;;;;;106.53;59.50;;;4.60;99.90;;;;;;4987579;28;20683;-38
2021/03/04 04:54:27;;;;;;;101.72;58.95;;;4.60;99.90;;;;;;4991652;28;20233;-40
2021/03/04 04:56:55;;;;;;;104.40;58.80;;;4.60;99.90;;;;;;4972311;28;20222;-40
2021/03/04 04:59:22;;;;;;;110.43;61.00;;;4.70;99.90;;;;;;5006067;28;20743;-38
2021/03/04 05:01:49;;;;;;;109.20;61.10;;;4.80;99.90;;;;;;4977315;28;20218;-39
2021/03/04 05:04:16;;;;;;;111.55;59.97;;;4.80;99.90;;;;;;4983281;28;20229;-39
2021/03/04 05:06:43;;;;;;;103.40;60.67;;;4.70;99.90;;;;;;4989991;28;20432;-38
2021/03/04 05:09:10;;;;;;;103.32;57.28;;;4.60;99.90;;;;;;4975421;28;20223;-39
2021/03/04 05:11:37;;;;;;;100.22;56.60;;;4.60;99.90;;;;;;4995062;28;20225;-39
2021/03/04 05:14:04;;;;;;;112.63;59.40;;;4.60;99.90;;;;;;4989548;28;20198;-39
2021/03/04 05:16:31;;;;;;;107.82;56.75;;;4.40;99.90;;;;;;4999038;28;20843;-38
2021/03/04 05:18:58;;;;;;;101.95;53.70;;;4.30;99.90;;;;;;4995922;28;20193;-40
2021/03/04 05:21:25;;;;;;;108.35;56.80;;;4.30;99.90;;;;;;4990316;28;20221;-39
2021/03/04 05:23:52;;;;;;;108.25;58.45;;;4.30;99.90;;;;;;4976004;28;20237;-39
2021/03/04 05:26:19;;;;;;;120.75;60.08;;;4.30;99.90;;;;;;4993205;28;20194;-39
2021/03/04 05:28:46;;;;;;;113.07;56.90;;;4.30;99.90;;;;;;4986933;28;20201;-39
2021/03/04 05:31:12;;;;;;;103.38;56.85;;;4.30;99.90;;;;;;4981804;28;20300;-38
2021/03/04 05:33:39;;;;;;;110.20;57.95;;;4.20;99.90;;;;;;4976409;28;20201;-38
2021/03/04 05:36:07;;;;;;;112.18;58.30;;;4.20;99.90;;;;;;4976507;28;20237;-40
2021/03/04 05:38:35;;;;;;;110.75;58.63;;;4.20;99.90;;;;;;4991484;28;20291;-38
2021/03/04 05:41:02;;;;;;;106.18;56.08;;;4.20;99.90;;;;;;4999887;28;20217;-40
2021/03/04 05:43:29;;;;;;;114.57;60.30;;;4.20;99.90;;;;;;4980810;28;20217;-40
2021/03/04 05:45:57;;;;;;;107.80;57.85;;;4.30;99.90;;;;;;4983116;28;20573;-38
2021/03/04 05:48:26;;;;;;;109.20;58.75;;;4.30;99.90;;;;;;4986755;28;20221;-39
2021/03/04 05:50:55;;;;;;;107.80;55.38;;;4.30;99.90;;;;;;4977767;28;20222;-39
2021/03/04 05:53:23;;;;;;;102.73;53.33;;;4.20;99.90;;;;;;4981049;28;20224;-40
2021/03/04 05:55:50;;;;;;;114.55;55.00;;;4.20;99.90;;;;;;4988773;28;20377;-38
2021/03/04 05:58:18;;;;;;;112.68;54.03;;;4.20;99.90;;;;;;4984091;28;20217;-38
2021/03/04 06:00:45;;;;;;;98.82;52.50;;;4.30;99.90;;;;;;4975694;28;20267;-39
2021/03/04 06:03:12;;;;;;;108.50;55.05;;;4.30;99.90;;;;;;4991312;28;20251;-38
2021/03/04 06:05:39;;;;;;;110.25;60.28;;;4.30;99.90;;;;;;4985912;28;20588;-39
2021/03/04 06:08:07;;;;;;;113.70;55.60;;;4.30;99.90;;;;;;4983397;28;20194;-39
2021/03/04 06:10:34;;;;;;;108.63;56.05;;;4.20;99.90;;;;;;4993772;28;20368;-39
2021/03/04 06:13:04;;;;;;;106.65;54.78;;;4.20;99.90;;;;;;4993863;28;20250;-39
2021/03/04 06:15:31;;;;;;;106.97;55.03;;;4.10;99.90;;;;;;4993160;28;20201;-40
2021/03/04 06:17:59;;;;;;;115.47;55.30;;;4.20;99.90;;;;;;4993722;28;20229;-39
2021/03/04 06:20:36;;;;;;;122.18;56.03;;;4.20;99.90;;;;;;4993572;28;20205;-39
2021/03/04 06:23:04;;;;;;;118.90;58.83;;;4.20;99.90;;;;;;4993889;28;20454;-41
2021/03/04 06:25:31;;;;;;;120.00;55.08;;;4.10;99.90;;;;;;4992510;28;20243;-39
2021/03/04 06:27:58;;;;;;;108.97;53.92;;;4.10;99.90;;;;;;4993465;28;20276;-42
2021/03/04 06:30:34;;;;;;;104.80;51.55;;;4.00;99.90;;;;;;4993092;28;20759;-39
2021/03/04 06:33:02;;;;;;;116.40;52.28;;;3.90;99.90;;;;;;4992978;28;20219;-40
2021/03/04 06:35:31;;;;;;;109.47;54.63;;;3.90;99.90;;;;;;4993121;28;20203;-39
2021/03/04 06:37:59;;;;;;;111.90;52.45;;;3.90;99.90;;;;;;4993181;28;22122;-40
2021/03/04 06:40:30;;;;;;;112.80;54.88;;;3.80;99.90;;;;;;4993094;28;20185;-40
2021/03/04 06:42:57;;;;;;;98.38;47.28;;;3.90;99.90;;;;;;4993515;28;20657;-39
2021/03/04 06:45:32;;;;;;;103.40;53.25;;;3.80;99.90;;;;;;4993000;28;20215;-40
2021/03/04 06:48:07;;;;;;;112.70;51.92;;;3.80;99.90;;;;;;4993414;28;20193;-40
2021/03/04 06:50:35;;;;;;;110.53;51.60;;;3.80;99.90;;;;;;4991224;28;20290;-41
2021/03/04 06:53:13;;;;;;;113.35;53.95;;;3.90;99.90;;;;;;4993088;28;20565;-39
2021/03/04 06:55:53;;;;;;;109.40;54.53;;;3.90;99.90;;;;;;4991385;28;20201;-41
2021/03/04 06:58:25;;;;;;;117.65;52.13;;;3.90;99.90;;;;;;4993032;28;20731;-39
2021/03/04 07:01:10;;;;;;;99.97;50.03;;;4.00;99.90;;;;;;4992065;28;20708;-39
2021/03/04 07:03:42;;;;;;;128.60;59.03;;;3.90;99.90;;;;;;4988172;28;20189;-40
2021/03/04 07:06:11;;;;;;;104.35;52.28;;;4.00;99.90;;;;;;4974931;28;20257;-39
2021/03/04 07:08:39;;;;;;;110.15;51.67;;;4.00;99.90;;;;;;4991742;28;20220;-39
2021/03/04 07:11:08;;;;;;;111.03;50.78;;;3.90;99.90;;;;;;4978435;28;20744;-39
2021/03/04 07:13:36;;;;;;;101.32;51.50;;;3.90;99.90;;;;;;4984302;28;20197;-42
2021/03/04 07:16:07;;;;;;;104.63;49.00;;;3.90;99.90;;;;;;4991065;28;20640;-40
2021/03/04 07:18:43;;;;;;;104.70;44.88;;;4.00;99.90;;;;;;4978795;28;20665;-40
2021/03/04 07:21:12;;;;;;;97.60;47.13;;;4.00;99.90;;;;;;4979499;28;20224;-40
2021/03/04 07:23:40;;;;;;;84.60;39.65;;;4.10;99.90;;;;;;4992426;28;20707;-40
2021/03/04 07:26:08;;;;;;;84.60;43.40;;;4.10;99.90;;;;;;4992721;28;20297;-39
2021/03/04 07:28:36;;;;;;;85.53;42.97;;;4.10;99.90;;;;;;4992700;28;20226;-39
2021/03/04 07:31:04;;;;;;;92.23;44.00;;;4.10;99.90;;;;;;4992810;28;20221;-40
2021/03/04 07:33:32;;;;;;;80.78;42.03;;;3.90;99.90;;;;;;4993361;28;20186;-39
2021/03/04 07:36:02;;;;;;;77.28;42.40;;;3.80;99.90;;;;;;4992616;28;20281;-39
2021/03/04 07:38:31;;;;;;;92.88;44.30;;;3.80;99.90;;;;;;4993718;28;20620;-40
2021/03/04 07:41:00;;;;;;;79.28;42.78;;;3.80;99.90;;;;;;4991759;28;20431;-39
2021/03/04 07:43:27;;;;;;;86.05;41.13;;;3.80;99.90;;;;;;4992446;28;20201;-40
2021/03/04 07:45:54;;;;;;;91.30;40.40;;;3.80;99.90;;;;;;5041825;22;20225;-88
2021/03/04 07:48:21;;;;;;;81.80;40.97;;;3.80;99.90;;;;;;5059049;28;20600;-84
2021/03/04 07:50:58;;;;;;;81.50;40.05;;;3.80;99.90;;;;;;5065653;28;20207;-84
2021/03/04 07:53:27;;;;;;;93.55;43.92;;;3.80;99.90;;;;;;5049537;28;20221;-84
2021/03/04 07:55:55;;;;;;;85.40;39.75;;;3.80;99.90;;;;;;5065646;28;20271;-82
2021/03/04 07:58:22;;;;;;;79.43;39.70;;;4.10;99.90;;;;;;5046059;28;20516;-87
2021/03/04 08:00:48;;;;;;;74.97;39.03;;;3.90;99.90;;;;;;5056790;28;20191;-86
2021/03/04 08:03:15;;;;;;;76.80;38.25;;;3.80;99.90;;;;;;5057512;28;20206;-86
2021/03/04 08:05:44;;;;;;;78.00;36.92;;;3.70;99.90;;;;;;5055210;28;20203;-86
2021/03/04 08:08:12;;;;;;;75.88;38.38;;;3.70;99.90;;;;;;5042641;28;20255;-87
2021/03/04 08:10:45;;;;;;;80.32;39.75;;;3.80;99.90;;;;;;5003984;28;20267;-87
2021/03/04 08:13:12;;;;;;;75.40;35.85;;;3.80;99.90;;;;;;5045360;28;20198;-87
2021/03/04 08:15:41;;;;;;;83.85;38.40;;;3.80;99.90;;;;;;5040291;28;20199;-87
2021/03/04 08:18:19;;;;;;;80.03;38.80;;;3.80;99.90;;;;;;5056209;28;20226;-87
2021/03/04 08:20:50;;;;;;;72.35;38.45;;;3.70;99.90;;;;;;5057287;28;20199;-86
2021/03/04 08:23:29;;;;;;;76.03;39.17;;;3.80;99.90;;;;;;5058011;28;20203;-86
2021/03/04 08:25:58;;;;;;;71.23;38.30;;;3.70;99.90;;;;;;5050568;28;20267;-87
2021/03/04 08:28:27;;;;;;;69.68;33.88;;;3.70;99.90;;;;;;5025957;28;20212;-87
2021/03/04 08:30:55;;;;;;;64.90;34.77;;;3.80;99.90;;;;;;5037768;28;20203;-86
2021/03/04 08:33:22;;;;;;;61.33;31.70;;;3.80;99.90;;;;;;5042354;28;20203;-86
2021/03/04 08:35:51;;;;;;;60.47;31.55;;;3.80;99.90;;;;;;5053857;28;20211;-86
2021/03/04 08:38:20;;;;;;;59.15;30.25;;;3.80;99.90;;;;;;5051919;28;20223;-87
2021/03/04 08:40:49;;;;;;;52.58;27.00;;;3.90;99.90;;;;;;5047513;28;20282;-86
2021/03/04 08:43:18;;;;;;;49.35;28.25;;;3.90;99.90;;;;;;5028853;28;20214;-86
2021/03/04 08:45:50;;;;;;;48.45;26.05;;;4.00;99.90;;;;;;5024791;28;20238;-86
2021/03/04 08:48:17;;;;;;;48.97;25.77;;;3.90;99.90;;;;;;5051739;28;20225;-86
2021/03/04 08:50:47;;;;;;;39.92;24.02;;;3.90;99.90;;;;;;5032124;28;20227;-86
2021/03/04 08:53:16;;;;;;;48.72;26.27;;;3.90;99.90;;;;;;5041642;28;20200;-86
2021/03/04 08:55:47;;;;;;;52.07;27.30;;;3.90;99.90;;;;;;5049021;28;20198;-86
2021/03/04 08:58:14;;;;;;;47.77;27.37;;;3.90;99.90;;;;;;5038481;28;20293;-86
2021/03/04 09:00:49;;;;;;;46.50;27.10;;;3.90;99.90;;;;;;5041342;28;20222;-86
2021/03/04 09:03:17;;;;;;;45.13;24.55;;;3.90;99.90;;;;;;5028640;28;20661;-86
2021/03/04 09:05:44;;;;;;;37.47;21.90;;;4.00;99.90;;;;;;5030180;28;20270;-86
2021/03/04 09:08:13;;;;;;;46.97;25.90;;;3.80;99.90;;;;;;5057036;28;20215;-85
2021/03/04 09:10:43;;;;;;;44.15;22.55;;;3.90;99.90;;;;;;5067039;28;20191;-86
2021/03/04 09:13:11;;;;;;;43.17;22.83;;;3.90;99.90;;;;;;5033873;28;20278;-86
2021/03/04 09:15:43;;;;;;;44.27;24.63;;;3.80;99.90;;;;;;5051073;28;20202;-87
2021/03/04 09:18:11;;;;;;;37.83;21.70;;;3.80;99.90;;;;;;5069926;28;20232;-87
2021/03/04 09:20:38;;;;;;;37.58;21.17;;;3.80;99.90;;;;;;5063573;28;20279;-86
2021/03/04 09:23:05;;;;;;;33.85;20.20;;;3.90;99.90;;;;;;5049404;28;20199;-86
2021/03/04 09:25:32;;;;;;;33.92;21.10;;;4.00;99.90;;;;;;5040845;28;20207;-86
2021/03/04 09:28:00;;;;;;;37.38;20.88;;;4.00;99.90;;;;;;5039789;28;20278;-86
2021/03/04 09:30:28;;;;;;;41.17;19.23;;;4.00;99.90;;;;;;5051649;28;20263;-86
2021/03/04 09:32:56;;;;;;;35.78;21.75;;;3.90;99.90;;;;;;5042686;28;20302;-85
2021/03/04 09:35:25;;;;;;;41.25;22.58;;;4.00;99.90;;;;;;5050232;28;20287;-85
2021/03/04 09:37:52;;;;;;;34.75;20.00;;;3.90;99.90;;;;;;5025499;28;20224;-84
2021/03/04 09:40:28;;;;;;;36.38;21.65;;;3.90;99.90;;;;;;5039766;28;20221;-86
2021/03/04 09:42:55;;;;;;;42.10;21.98;;;4.00;99.90;;;;;;5040950;28;20653;-85
2021/03/04 09:45:22;;;;;;;36.25;20.23;;;4.00;99.90;;;;;;5051224;28;20206;-83
2021/03/04 09:47:50;;;;;;;35.73;20.93;;;4.00;99.90;;;;;;5058474;28;20212;-83
2021/03/04 09:50:20;;;;;;;41.08;21.45;;;4.00;99.90;;;;;;5052609;28;20223;-86
2021/03/04 09:52:59;;;;;;;42.57;22.27;;;4.00;99.90;;;;;;5039307;28;20212;-85
2021/03/04 09:55:27;;;;;;;43.58;23.02;;;4.10;99.90;;;;;;5036542;28;20204;-85
2021/03/04 09:57:54;;;;;;;45.33;23.40;;;4.10;99.90;;;;;;5021517;28;20243;-85
2021/03/04 10:00:23;;;;;;;43.90;23.92;;;4.10;99.90;;;;;;5039100;28;20262;-85
2021/03/04 10:02:52;;;;;;;37.20;22.70;;;4.10;99.90;;;;;;5036989;28;20580;-85
2021/03/04 10:05:20;;;;;;;37.35;22.00;;;4.10;99.90;;;;;;5036462;28;20263;-87
2021/03/04 10:07:47;;;;;;;35.80;20.50;;;4.10;99.90;;;;;;5036918;28;20223;-86
2021/03/04 10:10:18;;;;;;;38.50;20.23;;;4.20;99.90;;;;;;5036266;28;20266;-85
2021/03/04 10:12:52;;;;;;;37.93;21.30;;;4.20;99.90;;;;;;5036344;28;20211;-86
2021/03/04 10:15:27;;;;;;;38.03;20.70;;;4.30;99.90;;;;;;5038719;28;20196;-86
2021/03/04 10:17:54;;;;;;;39.13;21.05;;;4.20;99.90;;;;;;5039703;28;20258;-86
2021/03/04 10:20:21;;;;;;;41.17;21.35;;;4.20;99.90;;;;;;5040002;28;20196;-83
2021/03/04 10:22:49;;;;;;;42.22;20.55;;;4.20;99.90;;;;;;5039829;28;20350;-86
2021/03/04 10:25:17;;;;;;;38.35;20.80;;;4.00;99.90;;;;;;5040134;28;20215;-85
2021/03/04 10:27:45;;;;;;;36.95;22.88;;;4.10;99.90;;;;;;5039643;28;20287;-86
2021/03/04 10:30:13;;;;;;;36.47;21.42;;;4.10;99.90;;;;;;5022737;28;20330;-86
2021/03/04 10:32:40;;;;;;;35.75;22.38;;;4.10;99.90;;;;;;5038914;28;20196;-87
2021/03/04 10:35:09;;;;;;;37.37;21.70;;;4.20;99.90;;;;;;5039776;28;20533;-86
2021/03/04 10:37:37;;;;;;;38.47;21.23;;;4.20;99.90;;;;;;5037912;28;20231;-86
2021/03/04 10:40:06;;;;;;;42.80;20.77;;;4.20;99.90;;;;;;5037497;28;20204;-86
2021/03/04 10:42:34;;;;;;;47.35;27.73;;;4.20;99.90;;;;;;5036742;28;20226;-85
2021/03/04 10:45:01;;;;;;;37.33;20.02;;;4.20;99.90;;;;;;5037157;28;20383;-86
2021/03/04 10:47:29;;;;;;;39.30;23.27;;;4.30;99.90;;;;;;5038942;28;20219;-87
2021/03/04 10:49:57;;;;;;;32.40;20.10;;;4.30;99.90;;;;;;5038124;28;20195;-87
2021/03/04 10:52:25;;;;;;;41.45;21.88;;;4.30;99.90;;;;;;5050586;28;20202;-86
2021/03/04 10:54:53;;;;;;;40.85;24.27;;;4.30;99.90;;;;;;5042403;28;20195;-85
2021/03/04 10:57:20;;;;;;;39.78;21.42;;;4.30;99.90;;;;;;5059987;28;20223;-85
2021/03/04 10:59:49;;;;;;;37.70;19.85;;;4.50;99.90;;;;;;5057836;28;20191;-86
2021/03/04 11:02:16;;;;;;;34.05;17.58;;;4.30;99.90;;;;;;5045898;28;20196;-86
2021/03/04 11:04:44;;;;;;;31.02;18.35;;;4.20;99.90;;;;;;5038830;28;20203;-86
2021/03/04 11:07:10;;;;;;;29.95;16.80;;;4.30;99.90;;;;;;5043393;28;20218;-86
2021/03/04 11:09:37;;;;;;;30.60;17.38;;;4.30;99.90;;;;;;5057290;28;20187;-85
2021/03/04 11:12:05;;;;;;;35.10;19.42;;;4.60;99.90;;;;;;5062310;28;20188;-87
2021/03/04 11:14:31;;;;;;;32.58;17.77;;;4.50;99.90;;;;;;5064300;28;20191;-87
2021/03/04 11:16:59;;;;;;;32.50;19.58;;;4.30;99.90;;;;;;5047391;28;20231;-88
2021/03/04 11:19:26;;;;;;;36.15;18.38;;;4.40;99.90;;;;;;5067924;28;20183;-87
2021/03/04 11:21:53;;;;;;;38.95;19.70;;;4.30;99.90;;;;;;5067642;28;20199;-85
2021/03/04 11:24:20;;;;;;;36.90;19.37;;;4.20;99.90;;;;;;5063982;28;20184;-86
2021/03/04 11:26:47;;;;;;;33.25;19.77;;;4.20;99.90;;;;;;5042530;28;20216;-88
2021/03/04 11:29:14;;;;;;;37.95;21.83;;;4.10;99.90;;;;;;5050449;28;20180;-86
2021/03/04 11:31:41;;;;;;;36.45;19.88;;;4.10;99.90;;;;;;5030467;28;20213;-87
2021/03/04 11:34:09;;;;;;;33.22;18.38;;;4.10;99.90;;;;;;5039856;28;20265;-86
2021/03/04 11:36:35;;;;;;;38.22;18.38;;;4.00;99.90;;;;;;5039702;28;20660;-87
2021/03/04 11:39:03;;;;;;;38.33;17.33;;;4.00;99.90;;;;;;5040933;28;20216;-86
2021/03/04 11:41:31;;;;;;;34.30;19.58;;;3.90;99.90;;;;;;5041768;28;20210;-87
2021/03/04 11:43:58;;;;;;;33.55;18.50;;;4.00;99.90;;;;;;5040622;28;20231;-86
2021/03/04 11:46:26;;;;;;;33.95;19.08;;;4.10;99.90;;;;;;5043358;28;20216;-86
2021/03/04 11:48:53;;;;;;;34.60;17.20;;;4.10;99.90;;;;;;5050886;28;20184;-87
2021/03/04 11:51:21;;;;;;;37.92;18.58;;;4.20;99.90;;;;;;5051849;28;20677;-87
2021/03/04 11:53:48;;;;;;;36.97;19.08;;;4.00;99.90;;;;;;5036357;28;20214;-86
2021/03/04 11:56:15;;;;;;;36.28;18.42;;;3.90;99.90;;;;;;5051369;28;20214;-86
2021/03/04 11:58:42;;;;;;;35.80;18.77;;;4.10;99.90;;;;;;5036611;28;20232;-86
2021/03/04 12:01:09;;;;;;;38.43;17.63;;;4.10;99.90;;;;;;5041532;28;20223;-86
2021/03/04 12:03:36;;;;;;;36.08;18.05;;;4.10;99.90;;;;;;5042399;28;20200;-86
2021/03/04 12:06:03;;;;;;;34.30;19.38;;;4.20;99.90;;;;;;5037323;28;20220;-87
2021/03/04 12:08:31;;;;;;;30.92;19.35;;;4.40;99.90;;;;;;5038649;28;20630;-86
2021/03/04 12:10:58;;;;;;;31.33;19.10;;;4.60;99.90;;;;;;5022337;28;20259;-85
2021/03/04 12:13:30;;;;;;;28.88;17.83;;;4.40;99.90;;;;;;5025092;28;20200;-85
2021/03/04 12:15:58;;;;;;;38.53;18.40;;;4.40;99.90;;;;;;5043826;28;20207;-85
2021/03/04 12:18:25;;;;;;;30.85;17.98;;;4.50;99.90;;;;;;5046794;28;20223;-84
2021/03/04 12:20:52;;;;;;;31.58;17.52;;;4.50;99.90;;;;;;5040191;28;20539;-85
2021/03/04 12:23:19;;;;;;;34.92;19.17;;;4.50;99.90;;;;;;5059525;28;20195;-88
2021/03/04 12:25:47;;;;;;;28.38;17.35;;;4.50;99.90;;;;;;5015038;28;20192;-85
2021/03/04 12:28:14;;;;;;;28.05;16.60;;;4.70;99.90;;;;;;5023764;28;20242;-87
2021/03/04 12:30:41;;;;;;;31.05;18.33;;;4.40;99.90;;;;;;5026399;28;20241;-87
2021/03/04 12:33:08;;;;;;;25.45;15.77;;;4.30;99.90;;;;;;5040905;28;20218;-87
2021/03/04 12:35:35;;;;;;;26.38;16.38;;;4.40;99.90;;;;;;5048213;28;20207;-87
2021/03/04 12:38:02;;;;;;;24.20;13.65;;;4.50;99.90;;;;;;5022531;28;20224;-85